메인 페이지
METAR-TAF:

METAR-TAF

공항 :

암만, 요르단

위도: 31-59N, 경도: 035-59E, 고도: 767m

현재 날씨관측

예보는 37분 전, 04:00시(UTC)에 발표되었습니다.
무풍
온도 24°C
습도 27%
기압 1018 hPa
시정: 2500m
연무

METAR: OJAM 220400Z 00000KT 2500 HZ NSC 24/04 Q1018 NOSIG

시각: 07:37 (04:37 UTC)

예보

예보는 5 시간 47분 전, 22:50시(UTC)에 발표되었습니다.
예보 대상 시간: 22일 00시부터 23일 06시까지 (UTC)
여러 방향의 바람 1kt
시정: 6000m
일시적
22일 02시부터 22일 06시까지 (UTC)
시정: 3000m
연무
전환 중
22일 05시부터 22일 07시까지 (UTC)
서북서10kt
시정: 5000m
연무
일시적
22시부터 01시까지 (UTC)
서북서14kt
시정: 4000m
연무

TAF: OJAM 212250Z 2200/2306 VRB01KT 6000 NSC TEMPO 2202/2206 3000 HZ BECMG 2205/2207 29010KT 5000 HZ NSC TEMPO 22012/2216 29014KT 4000 HZ

4,000개 이상의 공항 관측 자료 및 예보 (METAR 및 TAF 보고).

지도상에서 검색 가능한 기상관측소가 노란 점과 빨간 점으로 표시되어 있습니다.

기상관측소 명을 보려면 표시 위로 마우스를 이동하세요.

날씨 관측과 예보를 보려면 클릭하세요.

지도 변경 : 확대하려면 엑스 표시가 있는 녹색 버튼, 축소하려면 빼기 표시가 있는 녹색 버튼, 다음 페이지의 지도를 보려면 녹색 화살표를 클릭하세요.


METAR-TAF: